This is the latest recevied weather packets stored in our database for station/object KG7DQI-13. If no packets are shown the sender has not sent any weather packets the latest 10 day(s).
| Time | Temp. | Humidity | Pressure | Rain* | Wind** | Luminosity | Snow |
|---|---|---|---|---|---|---|---|
| 1777646017 | 7.22° C | 71% | 916.5 hPa | 0 mm | - | 218 W/m² | - |
| 1777645112 | 5° C | 78% | 916.6 hPa | 0 mm | - | 135 W/m² | - |
| 1777644171 | 2.78° C | 81% | 916.2 hPa | 0 mm | - | 125 W/m² | - |
| 1777643273 | 1.67° C | 81% | 916.3 hPa | 0 mm | - | 67 W/m² | - |
| 1777642372 | 1.11° C | 86% | 916.2 hPa | 0 mm | - | 28 W/m² | - |
| 1777641509 | 0° C | 84% | 916.2 hPa | 0 mm | - | 18 W/m² | - |
| 1777640611 | 0° C | 85% | 916.3 hPa | 0 mm | - | 7 W/m² | - |
| 1777639740 | 0° C | 81% | 916.3 hPa | 0 mm | - | 0 W/m² | - |
| 1777638796 | 0° C | 86% | 916.3 hPa | 0 mm | - | 0 W/m² | - |
| 1777637902 | -0.56° C | 82% | 916.3 hPa | 0 mm | - | 0 W/m² | - |
| 1777636977 | 0° C | 80% | 916.4 hPa | 0 mm | - | 0 W/m² | - |
| 1777636069 | 0.56° C | 83% | 916.5 hPa | 0 mm | - | 0 W/m² | - |
| 1777635183 | 0.56° C | 82% | 916.6 hPa | 0 mm | - | 0 W/m² | - |
| 1777634270 | 1.11° C | 78% | 916.6 hPa | 0 mm | - | 0 W/m² | - |
| 1777633371 | 1.11° C | 78% | 916.7 hPa | 0 mm | - | 0 W/m² | - |
| 1777632502 | 2.22° C | 79% | 916.6 hPa | 0 mm | - | 0 W/m² | - |
| 1777631635 | 1.67° C | 77% | 916.5 hPa | 0 mm | - | 0 W/m² | - |
| 1777630732 | 2.22° C | 77% | 916.4 hPa | 0 mm | - | 0 W/m² | - |
| 1777629805 | 2.78° C | 74% | 916.4 hPa | 0 mm | - | 0 W/m² | - |
| 1777628914 | 2.78° C | 77% | 916.3 hPa | 0 mm | - | 0 W/m² | - |
| 1777628052 | 2.78° C | 76% | 916.5 hPa | 0 mm | - | 0 W/m² | - |
| 1777627116 | 2.78° C | 75% | 916.5 hPa | 0 mm | - | 0 W/m² | - |
| 1777626183 | 3.33° C | 73% | 916.6 hPa | 0 mm | - | 0 W/m² | - |
| 1777625275 | 3.33° C | 74% | 916.6 hPa | 0 mm | - | 0 W/m² | - |
| 1777624378 | 3.89° C | 73% | 916.8 hPa | 0 mm | - | 0 W/m² | - |
* Rain latest hour (hover to see other rain measurements)
** Current wind speed in m/s (hover to see current wind gust speed)